Time;durP1;ratioP1;P1;durP2;ratioP2;P2;SDS_P1;SDS_P2;PMS_P1;PMS_P2;Temp;Humidity;BMP_temperature;BMP_pressure;BME280_temperature;BME280_humidity;BME280_pressure;Samples;Min_cycle;Max_cycle;Signal;HPM_P1;HPM_P2
2021/03/06 00:00:28;;;;;;;0.75;0.75;;;0.90;99.90;;;;;;4427910;32;20066;-72
2021/03/06 00:02:54;;;;;;;0.50;0.50;;;0.90;99.90;;;;;;4429062;32;20066;-72
2021/03/06 00:05:21;;;;;;;0.50;0.50;;;0.80;99.90;;;;;;4428719;32;20081;-71
2021/03/06 00:07:48;;;;;;;0.43;0.43;;;1.00;99.90;;;;;;4428182;32;20081;-73
2021/03/06 00:10:14;;;;;;;0.65;0.65;;;1.00;99.90;;;;;;4413682;32;20070;-73
2021/03/06 00:12:42;;;;;;;0.55;0.55;;;1.00;99.90;;;;;;4413246;32;20495;-73
2021/03/06 00:15:09;;;;;;;2.50;0.95;;;1.00;99.90;;;;;;4412451;32;20136;-72
2021/03/06 00:17:35;;;;;;;0.65;0.60;;;0.80;99.90;;;;;;4412741;32;20077;-73
2021/03/06 00:20:01;;;;;;;0.90;0.90;;;0.80;99.90;;;;;;4412711;32;20125;-72
2021/03/06 00:22:27;;;;;;;0.50;0.50;;;0.90;99.90;;;;;;4413674;32;20113;-71
2021/03/06 00:24:52;;;;;;;0.40;0.40;;;0.90;99.90;;;;;;4412846;32;20447;-71
2021/03/06 00:27:18;;;;;;;0.62;0.62;;;0.90;99.90;;;;;;4413079;32;20538;-71
2021/03/06 00:29:43;;;;;;;0.50;0.50;;;1.00;99.90;;;;;;4413032;32;20125;-72
2021/03/06 00:32:09;;;;;;;0.52;0.52;;;1.00;99.90;;;;;;4415986;32;20399;-71
2021/03/06 00:34:35;;;;;;;3.95;1.20;;;0.90;99.90;;;;;;4415364;32;20090;-71
2021/03/06 00:37:00;;;;;;;1.45;1.30;;;1.00;99.90;;;;;;4416572;32;20077;-71
2021/03/06 00:39:26;;;;;;;2.50;1.27;;;0.90;99.90;;;;;;4416205;32;20491;-72
2021/03/06 00:41:52;;;;;;;0.50;0.50;;;1.00;99.90;;;;;;4414547;32;20085;-72
2021/03/06 00:44:18;;;;;;;0.75;0.75;;;0.90;99.90;;;;;;4415309;32;20124;-72
2021/03/06 00:46:43;;;;;;;0.70;0.70;;;0.90;99.90;;;;;;4414879;32;20081;-72
2021/03/06 00:49:09;;;;;;;0.40;0.40;;;0.90;99.90;;;;;;4415218;32;20412;-71
2021/03/06 00:51:34;;;;;;;0.82;0.82;;;0.90;99.90;;;;;;4415110;32;20074;-71
2021/03/06 00:54:00;;;;;;;0.60;0.60;;;0.90;99.90;;;;;;4415947;32;20082;-72
2021/03/06 00:56:25;;;;;;;3.62;1.85;;;0.90;99.90;;;;;;4415158;32;20082;-72
2021/03/06 00:58:51;;;;;;;0.60;0.60;;;0.90;99.90;;;;;;4414463;32;20074;-71
2021/03/06 01:01:16;;;;;;;0.75;0.75;;;0.90;99.90;;;;;;4415944;32;20420;-72
2021/03/06 01:03:42;;;;;;;0.98;0.95;;;0.80;99.90;;;;;;4414887;32;20070;-71
2021/03/06 01:06:07;;;;;;;0.60;0.60;;;0.80;99.90;;;;;;4415106;32;20073;-71
2021/03/06 01:08:34;;;;;;;0.50;0.50;;;0.80;99.90;;;;;;4419005;32;20074;-72
2021/03/06 01:11:01;;;;;;;1.55;0.93;;;0.80;99.90;;;;;;4431246;32;20118;-72
2021/03/06 01:13:28;;;;;;;1.60;1.15;;;0.80;99.90;;;;;;4429884;32;20069;-71
2021/03/06 01:15:53;;;;;;;0.98;0.98;;;0.70;99.90;;;;;;4429577;32;20065;-71
2021/03/06 01:18:19;;;;;;;0.40;0.40;;;0.60;99.90;;;;;;4429832;32;20077;-71
2021/03/06 01:20:45;;;;;;;0.52;0.52;;;0.70;99.90;;;;;;4430193;32;20519;-72
2021/03/06 01:23:11;;;;;;;0.68;0.68;;;0.50;99.90;;;;;;4429828;32;20116;-72
2021/03/06 01:25:36;;;;;;;2.20;0.75;;;0.50;99.90;;;;;;4429935;32;20076;-72
2021/03/06 01:28:02;;;;;;;0.40;0.40;;;0.50;99.90;;;;;;4430072;32;20124;-71
2021/03/06 01:30:28;;;;;;;0.93;0.93;;;0.60;99.90;;;;;;4429349;32;20065;-72
2021/03/06 01:32:54;;;;;;;0.45;0.45;;;0.60;99.90;;;;;;4430731;32;20057;-72
2021/03/06 01:35:25;;;;;;;0.40;0.40;;;0.60;99.90;;;;;;4430348;32;20078;-72
2021/03/06 01:37:51;;;;;;;0.50;0.50;;;0.70;99.90;;;;;;4430170;32;20062;-71
2021/03/06 01:40:21;;;;;;;0.70;0.70;;;0.80;99.90;;;;;;4428895;32;20078;-72
2021/03/06 01:42:47;;;;;;;0.68;0.68;;;0.70;99.90;;;;;;4429404;32;20510;-72
2021/03/06 01:45:12;;;;;;;0.75;0.75;;;0.70;99.90;;;;;;4429620;32;20069;-72
2021/03/06 01:47:38;;;;;;;0.68;0.65;;;0.70;99.90;;;;;;4429640;32;20074;-72
2021/03/06 01:50:06;;;;;;;0.55;0.55;;;0.60;99.90;;;;;;4429592;32;20130;-72
2021/03/06 01:52:31;;;;;;;0.62;0.62;;;0.70;99.90;;;;;;4429894;32;20065;-72
2021/03/06 01:54:57;;;;;;;0.70;0.70;;;0.60;99.90;;;;;;4429929;32;20089;-72
2021/03/06 01:57:24;;;;;;;1.37;0.93;;;0.60;99.90;;;;;;4429539;32;20058;-72
2021/03/06 01:59:49;;;;;;;1.33;1.10;;;0.60;99.90;;;;;;4422757;32;20553;-72
2021/03/06 02:02:16;;;;;;;0.50;0.50;;;0.60;99.90;;;;;;4414180;32;20074;-72
2021/03/06 02:04:41;;;;;;;0.50;0.50;;;0.60;99.90;;;;;;4414409;32;20384;-71
2021/03/06 02:07:07;;;;;;;0.70;0.70;;;0.50;99.90;;;;;;4414077;32;20120;-72
2021/03/06 02:09:32;;;;;;;0.40;0.40;;;0.60;99.90;;;;;;4425332;32;20085;-72
2021/03/06 02:12:12;;;;;;;1.17;0.70;;;0.60;99.90;;;;;;4429842;32;20125;-72
2021/03/06 02:14:59;;;;;;;0.43;0.43;;;0.50;99.90;;;;;;4429501;32;20057;-72
2021/03/06 02:17:50;;;;;;;0.50;0.50;;;0.60;99.90;;;;;;4428867;32;20081;-72
2021/03/06 02:20:22;;;;;;;0.60;0.60;;;0.70;99.90;;;;;;4428511;32;20129;-72
2021/03/06 02:23:12;;;;;;;0.50;0.50;;;0.60;99.90;;;;;;4428951;32;20056;-72
2021/03/06 02:26:13;;;;;;;0.60;0.60;;;0.40;99.90;;;;;;4429282;32;20115;-71
2021/03/06 02:28:40;;;;;;;;;;;0.50;99.90;;;;;;4428808;32;20168;-71
2021/03/06 02:31:09;;;;;;;0.40;0.40;;;0.50;99.90;;;;;;4430253;32;19949;-72
2021/03/06 02:33:37;;;;;;;0.75;0.75;;;0.50;99.90;;;;;;4429311;32;20515;-72
2021/03/06 02:36:07;;;;;;;3.50;1.05;;;0.60;99.90;;;;;;4429173;32;20089;-72
2021/03/06 02:38:34;;;;;;;0.40;0.40;;;0.50;99.90;;;;;;4429246;32;20089;-72
2021/03/06 02:41:01;;;;;;;0.40;0.40;;;0.60;99.90;;;;;;4429402;32;20057;-72
2021/03/06 02:43:29;;;;;;;0.50;0.50;;;0.50;99.90;;;;;;4429872;32;20657;-71
2021/03/06 02:45:55;;;;;;;0.68;0.68;;;0.50;99.90;;;;;;4428994;32;20136;-71
2021/03/06 02:48:21;;;;;;;0.98;0.93;;;0.40;99.90;;;;;;4429089;32;20061;-71
2021/03/06 02:50:52;;;;;;;0.55;0.55;;;0.40;99.90;;;;;;4429504;32;20526;-72
2021/03/06 02:53:18;;;;;;;0.40;0.40;;;0.40;99.90;;;;;;4428616;32;20061;-72
2021/03/06 02:55:43;;;;;;;0.40;0.40;;;0.40;99.90;;;;;;4429303;32;20077;-72
2021/03/06 02:58:33;;;;;;;0.62;0.62;;;0.40;99.90;;;;;;4429285;32;20076;-71
2021/03/06 03:01:07;;;;;;;0.50;0.50;;;0.40;99.90;;;;;;4427689;32;20499;-71
2021/03/06 03:03:59;;;;;;;0.40;0.40;;;0.30;99.90;;;;;;4429817;32;20142;-71
2021/03/06 03:06:45;;;;;;;0.37;0.37;;;0.30;99.90;;;;;;4429516;32;20065;-71
2021/03/06 03:09:21;;;;;;;0.50;0.50;;;0.40;99.90;;;;;;4422203;32;20082;-71
2021/03/06 03:11:58;;;;;;;0.90;0.90;;;0.50;99.90;;;;;;4412900;32;20105;-71
2021/03/06 03:14:47;;;;;;;0.40;0.40;;;0.40;99.90;;;;;;4413381;32;20389;-71
2021/03/06 03:17:20;;;;;;;0.40;0.40;;;0.30;99.90;;;;;;4412228;32;20195;-72
2021/03/06 03:20:00;;;;;;;0.40;0.40;;;0.30;99.90;;;;;;4413129;32;20061;-71
2021/03/06 03:22:31;;;;;;;0.55;0.55;;;0.30;99.90;;;;;;4413242;32;20077;-71
2021/03/06 03:25:00;;;;;;;0.50;0.50;;;0.30;99.90;;;;;;4413376;32;20179;-71
2021/03/06 03:27:26;;;;;;;0.35;0.35;;;0.30;99.90;;;;;;4413258;32;20084;-71
2021/03/06 03:29:52;;;;;;;5.22;1.75;;;0.30;99.90;;;;;;4412870;32;20074;-71
2021/03/06 03:32:20;;;;;;;1.27;1.02;;;0.30;99.90;;;;;;4413286;32;20127;-71
2021/03/06 03:34:48;;;;;;;1.02;1.02;;;0.30;99.90;;;;;;4413271;32;20074;-72
2021/03/06 03:37:14;;;;;;;0.80;0.80;;;0.30;99.90;;;;;;4413452;32;20132;-71
2021/03/06 03:39:40;;;;;;;0.50;0.50;;;0.30;99.90;;;;;;4412774;32;20070;-71
2021/03/06 03:42:07;;;;;;;0.40;0.40;;;0.30;99.90;;;;;;4412809;32;20070;-71
2021/03/06 03:44:34;;;;;;;2.08;1.35;;;0.30;99.90;;;;;;4414085;32;20128;-71
2021/03/06 03:47:01;;;;;;;0.40;0.40;;;0.30;99.90;;;;;;4413352;32;20069;-71
2021/03/06 03:49:28;;;;;;;0.55;0.55;;;0.30;99.90;;;;;;4413133;32;20069;-71
2021/03/06 03:51:53;;;;;;;0.30;0.30;;;0.30;99.90;;;;;;4414551;32;20113;-71
2021/03/06 03:54:19;;;;;;;0.45;0.45;;;0.20;99.90;;;;;;4413601;32;20065;-71
2021/03/06 03:56:45;;;;;;;0.52;0.52;;;0.20;99.90;;;;;;4413251;32;20077;-71
2021/03/06 03:59:11;;;;;;;0.50;0.50;;;0.20;99.90;;;;;;4412439;32;20140;-71
2021/03/06 04:01:47;;;;;;;0.40;0.40;;;0.30;99.90;;;;;;4413102;32;20511;-72
2021/03/06 04:04:30;;;;;;;0.45;0.45;;;0.30;99.90;;;;;;4413264;32;20137;-71
2021/03/06 04:06:57;;;;;;;0.70;0.70;;;0.30;99.90;;;;;;4415737;32;20498;-71
2021/03/06 04:09:23;;;;;;;0.50;0.50;;;0.30;99.90;;;;;;4424727;32;20069;-71
2021/03/06 04:11:49;;;;;;;0.32;0.32;;;0.20;99.90;;;;;;4431470;32;20065;-71
2021/03/06 04:14:14;;;;;;;0.60;0.60;;;0.00;99.90;;;;;;4430984;32;20089;-71
2021/03/06 04:16:40;;;;;;;0.40;0.40;;;0.00;99.90;;;;;;4430793;32;20073;-71
2021/03/06 04:19:06;;;;;;;0.40;0.40;;;-0.10;99.90;;;;;;4431787;32;20141;-71
2021/03/06 04:21:32;;;;;;;0.57;0.57;;;-0.20;99.90;;;;;;4431008;32;20090;-71
2021/03/06 04:23:58;;;;;;;0.60;0.60;;;-0.20;99.90;;;;;;4430773;32;20061;-71
2021/03/06 04:26:24;;;;;;;0.47;0.47;;;-0.20;99.90;;;;;;4430924;32;20068;-71
2021/03/06 04:28:50;;;;;;;0.50;0.50;;;-0.30;99.90;;;;;;4430663;32;20447;-72
2021/03/06 04:31:15;;;;;;;0.30;0.30;;;-0.30;99.90;;;;;;4430733;32;20178;-71
2021/03/06 04:33:41;;;;;;;2.05;1.08;;;-0.20;99.90;;;;;;4430787;32;20337;-71
2021/03/06 04:36:07;;;;;;;0.68;0.68;;;-0.20;99.90;;;;;;4430476;32;20498;-71
2021/03/06 04:38:33;;;;;;;0.40;0.40;;;-0.20;99.90;;;;;;4431083;32;20065;-71
2021/03/06 04:40:58;;;;;;;0.37;0.37;;;-0.20;99.90;;;;;;4429991;32;20400;-72
2021/03/06 04:43:24;;;;;;;0.40;0.40;;;-0.10;99.90;;;;;;4431226;32;20078;-71
2021/03/06 04:45:49;;;;;;;0.70;0.70;;;-0.10;99.90;;;;;;4431282;32;20076;-71
2021/03/06 04:48:15;;;;;;;0.50;0.50;;;-0.20;99.90;;;;;;4430731;32;20062;-71
2021/03/06 04:50:40;;;;;;;0.57;0.57;;;-0.30;99.90;;;;;;4430557;32;20385;-71
2021/03/06 04:53:06;;;;;;;0.30;0.30;;;-0.20;99.90;;;;;;4431066;32;20490;-71
2021/03/06 04:55:32;;;;;;;0.43;0.43;;;-0.20;99.90;;;;;;4430441;32;20080;-71
2021/03/06 04:57:57;;;;;;;0.50;0.50;;;-0.30;99.90;;;;;;4430715;32;20502;-71
2021/03/06 05:00:23;;;;;;;1.25;1.15;;;-0.30;99.90;;;;;;4430441;32;20065;-71
2021/03/06 05:02:48;;;;;;;0.40;0.40;;;-0.30;99.90;;;;;;4430234;32;20061;-72
2021/03/06 05:05:14;;;;;;;0.40;0.40;;;-0.30;99.90;;;;;;4430227;32;20057;-72
2021/03/06 05:07:40;;;;;;;0.45;0.45;;;-0.30;99.90;;;;;;4430851;32;20061;-72
2021/03/06 05:10:06;;;;;;;3.35;1.33;;;-0.20;99.90;;;;;;4417197;32;20090;-73
2021/03/06 05:12:32;;;;;;;0.40;0.40;;;-0.20;99.90;;;;;;4414892;32;20116;-72
2021/03/06 05:14:57;;;;;;;0.50;0.50;;;-0.30;99.90;;;;;;4414624;32;20116;-72
2021/03/06 05:17:23;;;;;;;0.40;0.40;;;-0.30;99.90;;;;;;4414401;32;20058;-73
2021/03/06 05:19:48;;;;;;;0.52;0.52;;;-0.30;99.90;;;;;;4414818;32;20500;-73
2021/03/06 05:22:14;;;;;;;0.30;0.30;;;-0.30;99.90;;;;;;4414881;32;20104;-72
2021/03/06 05:24:40;;;;;;;0.40;0.40;;;-0.40;99.90;;;;;;4414715;32;20065;-72
2021/03/06 05:27:06;;;;;;;0.50;0.50;;;-0.30;99.90;;;;;;4414545;32;20405;-72
2021/03/06 05:29:33;;;;;;;0.93;0.93;;;-0.30;99.90;;;;;;4414419;32;20891;-72
2021/03/06 05:32:03;;;;;;;0.40;0.40;;;-0.20;99.90;;;;;;4414889;32;20327;-73
2021/03/06 05:34:28;;;;;;;0.57;0.57;;;-0.20;99.90;;;;;;4414517;32;20069;-72
2021/03/06 05:36:54;;;;;;;0.60;0.60;;;-0.30;99.90;;;;;;4415696;32;20070;-72
2021/03/06 05:39:20;;;;;;;0.45;0.45;;;-0.30;99.90;;;;;;4415250;32;20070;-72
2021/03/06 05:41:47;;;;;;;0.73;0.73;;;-0.40;99.90;;;;;;4413928;32;20101;-72
2021/03/06 05:44:13;;;;;;;0.43;0.43;;;-0.30;99.90;;;;;;4415759;32;20121;-72
2021/03/06 05:46:40;;;;;;;2.55;1.37;;;-0.20;99.90;;;;;;4415531;32;20447;-73
2021/03/06 05:49:06;;;;;;;0.40;0.40;;;-0.10;99.90;;;;;;4415496;32;20085;-72
2021/03/06 05:51:34;;;;;;;0.50;0.50;;;-0.10;99.90;;;;;;4415780;32;20520;-72
2021/03/06 05:54:07;;;;;;;0.50;0.50;;;-0.10;99.90;;;;;;4414933;32;20124;-72
2021/03/06 05:56:36;;;;;;;0.50;0.50;;;-0.10;99.90;;;;;;4414205;32;20065;-72
2021/03/06 05:59:03;;;;;;;0.47;0.47;;;-0.10;99.90;;;;;;4413783;32;20412;-72
2021/03/06 06:01:30;;;;;;;0.82;0.82;;;-0.20;99.90;;;;;;4414294;32;20463;-72
2021/03/06 06:04:00;;;;;;;0.50;0.50;;;-0.20;99.90;;;;;;4414574;32;20077;-72
2021/03/06 06:06:27;;;;;;;2.53;1.15;;;-0.20;99.90;;;;;;4414256;32;20065;-72
2021/03/06 06:08:54;;;;;;;0.47;0.47;;;-0.20;99.90;;;;;;4419927;32;20064;-72
2021/03/06 06:11:19;;;;;;;0.88;0.88;;;-0.20;99.90;;;;;;4429802;32;20531;-72
2021/03/06 06:13:45;;;;;;;0.82;0.82;;;-0.30;99.90;;;;;;4429312;32;20061;-72
2021/03/06 06:16:10;;;;;;;0.70;0.70;;;-0.10;99.90;;;;;;4430117;32;20700;-72
2021/03/06 06:18:36;;;;;;;1.92;1.00;;;0.00;99.90;;;;;;4430241;32;20108;-72
2021/03/06 06:21:02;;;;;;;24.58;1.17;;;0.00;99.90;;;;;;4429552;32;20062;-72
2021/03/06 06:23:28;;;;;;;0.60;0.60;;;0.00;99.90;;;;;;4429575;32;20120;-72
2021/03/06 06:25:53;;;;;;;0.40;0.40;;;-0.10;99.90;;;;;;4430320;32;20450;-72
2021/03/06 06:28:19;;;;;;;0.30;0.30;;;0.00;99.90;;;;;;4429233;32;20068;-72
2021/03/06 06:31:08;;;;;;;0.40;0.40;;;0.00;99.90;;;;;;4430161;32;20383;-72
2021/03/06 06:33:34;;;;;;;0.70;0.70;;;0.00;99.90;;;;;;4428086;32;20073;-72
2021/03/06 06:36:00;;;;;;;0.32;0.32;;;0.00;99.90;;;;;;4429360;32;20143;-72
2021/03/06 06:38:25;;;;;;;0.45;0.45;;;0.00;99.90;;;;;;4429298;32;20134;-72
2021/03/06 06:40:55;;;;;;;1.27;1.15;;;0.10;99.90;;;;;;4428604;32;20073;-72
2021/03/06 06:43:24;;;;;;;0.52;0.52;;;0.10;99.90;;;;;;4428763;32;20069;-72
2021/03/06 06:45:50;;;;;;;0.43;0.43;;;0.00;99.90;;;;;;4424316;32;20428;-72
2021/03/06 06:48:15;;;;;;;0.30;0.30;;;0.10;99.90;;;;;;4417096;32;20065;-72
2021/03/06 06:50:42;;;;;;;0.85;0.85;;;0.10;99.90;;;;;;4415084;32;20440;-72
2021/03/06 06:53:23;;;;;;;0.40;0.40;;;0.20;99.90;;;;;;4414392;32;20589;-72
2021/03/06 06:55:48;;;;;;;0.30;0.30;;;0.30;99.90;;;;;;4413869;32;20086;-72
2021/03/06 06:58:14;;;;;;;0.32;0.32;;;0.20;99.90;;;;;;4415407;32;20073;-72
2021/03/06 07:00:39;;;;;;;0.30;0.30;;;0.20;99.90;;;;;;4413867;32;20515;-72
2021/03/06 07:03:05;;;;;;;0.43;0.43;;;0.30;99.90;;;;;;4413382;32;20592;-72
2021/03/06 07:05:33;;;;;;;0.43;0.43;;;0.30;99.90;;;;;;4413737;32;20065;-72
2021/03/06 07:08:00;;;;;;;0.28;0.28;;;0.50;99.90;;;;;;4413279;32;20120;-72
2021/03/06 07:10:41;;;;;;;0.47;0.45;;;0.50;99.90;;;;;;4412625;32;20073;-72
2021/03/06 07:13:09;;;;;;;;;;;0.70;99.90;;;;;;4413686;32;20069;-72
2021/03/06 07:15:36;;;;;;;0.40;0.40;;;0.80;99.90;;;;;;4414342;32;19941;-72
2021/03/06 07:18:05;;;;;;;7.22;2.80;;;0.80;99.90;;;;;;4413669;32;20147;-72
2021/03/06 07:20:34;;;;;;;0.40;0.40;;;0.90;99.90;;;;;;4413520;32;20526;-72
2021/03/06 07:23:19;;;;;;;4.32;0.80;;;0.90;99.90;;;;;;4413732;32;20073;-72
2021/03/06 07:25:45;;;;;;;0.40;0.40;;;0.90;99.90;;;;;;4414069;32;20140;-72
2021/03/06 07:28:10;;;;;;;0.47;0.47;;;0.90;99.90;;;;;;4413367;32;20061;-72
2021/03/06 07:30:37;;;;;;;0.65;0.65;;;1.00;99.90;;;;;;4413228;32;20081;-72
2021/03/06 07:33:05;;;;;;;0.40;0.40;;;1.10;99.90;;;;;;4413320;32;20065;-72
2021/03/06 07:35:36;;;;;;;0.40;0.40;;;1.30;99.90;;;;;;4413540;32;20057;-75
2021/03/06 07:38:07;;;;;;;0.55;0.55;;;1.30;99.90;;;;;;4413109;32;20073;-75
2021/03/06 07:40:36;;;;;;;0.60;0.60;;;1.40;99.90;;;;;;4416115;32;20077;-75
2021/03/06 07:43:11;;;;;;;0.60;0.60;;;1.40;99.90;;;;;;4417081;32;20085;-75
2021/03/06 07:45:41;;;;;;;0.35;0.35;;;1.30;99.90;;;;;;4415921;32;20527;-74
2021/03/06 07:48:09;;;;;;;0.40;0.40;;;1.40;99.90;;;;;;4416181;32;20082;-75
2021/03/06 07:50:38;;;;;;;0.50;0.50;;;1.50;99.90;;;;;;4416316;32;20073;-75
2021/03/06 07:53:04;;;;;;;0.35;0.35;;;1.70;99.90;;;;;;4416713;32;20120;-75
2021/03/06 07:55:31;;;;;;;0.47;0.47;;;1.80;99.90;;;;;;4416524;32;20522;-75
2021/03/06 07:58:18;;;;;;;3.40;1.20;;;1.90;99.90;;;;;;4415924;32;20412;-75
2021/03/06 08:00:54;;;;;;;0.43;0.43;;;2.00;99.90;;;;;;4414260;32;20077;-75
2021/03/06 08:03:26;;;;;;;0.60;0.60;;;2.00;99.90;;;;;;4415415;32;20077;-75
2021/03/06 08:06:01;;;;;;;0.50;0.50;;;1.80;99.90;;;;;;4415663;32;20121;-75
2021/03/06 08:08:44;;;;;;;0.55;0.50;;;1.90;99.90;;;;;;4418748;32;20400;-74
2021/03/06 08:11:18;;;;;;;1.08;0.93;;;2.10;99.90;;;;;;4430443;32;20069;-74
2021/03/06 08:13:48;;;;;;;0.30;0.30;;;2.20;99.90;;;;;;4431634;32;20424;-75
2021/03/06 08:16:23;;;;;;;0.40;0.40;;;2.20;99.90;;;;;;4429758;32;20069;-74
2021/03/06 08:19:01;;;;;;;0.40;0.40;;;2.30;99.90;;;;;;4415405;32;20062;-75
2021/03/06 08:21:30;;;;;;;0.32;0.32;;;2.30;99.90;;;;;;4415342;32;20432;-75
2021/03/06 08:24:21;;;;;;;0.50;0.50;;;2.40;99.90;;;;;;4415355;32;20062;-75
2021/03/06 08:26:55;;;;;;;;;;;2.40;99.90;;;;;;4414687;32;20191;-75
2021/03/06 08:29:24;;;;;;;0.35;0.35;;;2.50;99.90;;;;;;4414705;32;20006;-75
2021/03/06 08:32:18;;;;;;;0.30;0.30;;;2.70;99.90;;;;;;4415916;32;20542;-75
2021/03/06 08:34:47;;;;;;;0.40;0.40;;;2.80;99.90;;;;;;4415410;32;20061;-74
2021/03/06 08:37:15;;;;;;;0.65;0.65;;;2.80;99.90;;;;;;4415843;32;20065;-75
2021/03/06 08:39:46;;;;;;;5.00;2.15;;;2.80;99.90;;;;;;4413240;32;20074;-74
2021/03/06 08:42:14;;;;;;;0.50;0.50;;;2.80;99.90;;;;;;4414724;32;20090;-74
2021/03/06 08:44:40;;;;;;;0.40;0.40;;;2.90;99.90;;;;;;4415284;32;20061;-74
2021/03/06 08:47:07;;;;;;;0.60;0.60;;;3.10;99.90;;;;;;4414228;32;20113;-74
2021/03/06 08:49:34;;;;;;;0.30;0.30;;;3.10;99.90;;;;;;4414643;32;20472;-74
2021/03/06 08:51:59;;;;;;;0.30;0.30;;;3.20;99.90;;;;;;4414773;32;20082;-74
2021/03/06 08:54:25;;;;;;;2.10;0.70;;;3.20;99.90;;;;;;4416456;32;20073;-74
2021/03/06 08:56:51;;;;;;;0.32;0.32;;;3.20;99.90;;;;;;4415149;32;20057;-74
2021/03/06 08:59:16;;;;;;;0.40;0.40;;;3.40;99.90;;;;;;4414362;32;20066;-74
2021/03/06 09:01:43;;;;;;;0.40;0.40;;;3.40;99.90;;;;;;4415899;32;20057;-74
2021/03/06 09:04:10;;;;;;;0.68;0.68;;;3.50;99.90;;;;;;4415973;32;20527;-74
2021/03/06 09:06:37;;;;;;;0.47;0.47;;;3.50;99.90;;;;;;4414619;32;20065;-74
2021/03/06 09:09:06;;;;;;;0.60;0.60;;;3.60;99.90;;;;;;4421623;32;20065;-74
2021/03/06 09:11:32;;;;;;;0.30;0.30;;;3.80;99.90;;;;;;4429461;32;20098;-74
2021/03/06 09:13:58;;;;;;;0.50;0.50;;;4.10;99.90;;;;;;4430097;32;20069;-74
2021/03/06 09:16:24;;;;;;;1.45;0.70;;;4.00;99.90;;;;;;4429986;32;20056;-74
2021/03/06 09:18:49;;;;;;;0.30;0.30;;;4.10;99.90;;;;;;4429874;32;20139;-74
2021/03/06 09:21:23;;;;;;;0.47;0.45;;;4.20;99.90;;;;;;4430780;32;20093;-74
2021/03/06 09:23:51;;;;;;;0.60;0.60;;;4.10;99.90;;;;;;4431236;32;20093;-74
2021/03/06 09:26:20;;;;;;;0.30;0.30;;;4.20;99.90;;;;;;4430351;32;20147;-74
2021/03/06 09:28:48;;;;;;;0.40;0.40;;;4.30;99.90;;;;;;4429414;32;20066;-74
2021/03/06 09:31:15;;;;;;;0.52;0.52;;;4.40;99.90;;;;;;4430208;32;20061;-74
2021/03/06 09:33:42;;;;;;;0.47;0.47;;;4.60;99.90;;;;;;4429818;32;20134;-74
2021/03/06 09:36:11;;;;;;;1.45;1.35;;;4.80;99.90;;;;;;4429785;32;20131;-74
2021/03/06 09:38:47;;;;;;;0.50;0.50;;;4.70;99.90;;;;;;4429714;32;20123;-74
2021/03/06 09:41:14;;;;;;;0.45;0.45;;;4.70;99.90;;;;;;4428951;32;20448;-74
2021/03/06 09:43:41;;;;;;;0.52;0.52;;;4.70;99.90;;;;;;4429860;32;20427;-74
2021/03/06 09:46:25;;;;;;;0.40;0.40;;;4.70;99.90;;;;;;4430096;32;20061;-74
2021/03/06 09:49:14;;;;;;;0.30;0.30;;;4.80;99.90;;;;;;4429893;32;20112;-74
2021/03/06 09:51:45;;;;;;;1.45;0.62;;;4.70;99.90;;;;;;4428921;32;20073;-74
2021/03/06 09:54:11;;;;;;;;;;;4.60;99.90;;;;;;4429828;32;20065;-75
2021/03/06 09:56:54;;;;;;;0.30;0.30;;;4.60;99.90;;;;;;4430844;32;20299;-74
2021/03/06 09:59:22;;;;;;;0.45;0.45;;;4.60;99.90;;;;;;4429670;32;20132;-76
2021/03/06 10:01:48;;;;;;;0.43;0.43;;;4.50;99.90;;;;;;4428697;32;20265;-74
2021/03/06 10:04:20;;;;;;;0.43;0.43;;;4.40;99.90;;;;;;4429851;32;20498;-74
2021/03/06 10:06:50;;;;;;;0.40;0.40;;;4.50;99.90;;;;;;4429705;32;20081;-74
2021/03/06 10:09:17;;;;;;;0.53;0.53;;;4.50;99.90;;;;;;4421536;32;20081;-74
2021/03/06 10:11:47;;;;;;;0.35;0.35;;;4.50;99.90;;;;;;4413604;32;20477;-74
2021/03/06 10:14:17;;;;;;;0.40;0.40;;;4.70;99.90;;;;;;4414794;32;20409;-74
2021/03/06 10:16:46;;;;;;;12.37;0.93;;;4.90;99.90;;;;;;4415338;32;20066;-74
2021/03/06 10:19:12;;;;;;;1.33;0.85;;;5.10;99.90;;;;;;4414085;32;20094;-74
2021/03/06 10:21:38;;;;;;;0.52;0.52;;;4.90;99.90;;;;;;4413711;32;20061;-74
2021/03/06 10:24:06;;;;;;;0.45;0.45;;;4.60;99.90;;;;;;4414139;32;20486;-74
2021/03/06 10:26:32;;;;;;;0.57;0.57;;;4.70;99.90;;;;;;4414173;32;20108;-75
2021/03/06 10:29:00;;;;;;;0.43;0.43;;;4.80;99.90;;;;;;4413289;32;20450;-75
2021/03/06 10:31:28;;;;;;;0.40;0.40;;;4.80;99.90;;;;;;4413688;32;20082;-75
2021/03/06 10:33:54;;;;;;;1.85;0.75;;;4.80;99.90;;;;;;4413676;32;20085;-75
2021/03/06 10:36:20;;;;;;;18.37;0.80;;;5.00;99.90;;;;;;4414384;32;20049;-75
2021/03/06 10:38:45;;;;;;;0.40;0.40;;;5.00;99.90;;;;;;4415265;32;20065;-74
2021/03/06 10:41:17;;;;;;;0.40;0.40;;;4.90;99.90;;;;;;4414232;32;20664;-74
2021/03/06 10:43:50;;;;;;;0.40;0.40;;;4.80;99.90;;;;;;4411114;32;74233;-74
2021/03/06 10:46:21;;;;;;;1.95;1.10;;;4.60;99.90;;;;;;4413656;32;20081;-74
2021/03/06 10:48:57;;;;;;;1.00;0.52;;;4.40;99.90;;;;;;4414226;32;20051;-74
2021/03/06 10:51:25;;;;;;;1.05;0.60;;;4.20;99.90;;;;;;4413715;32;20057;-74
2021/03/06 10:54:07;;;;;;;0.55;0.55;;;4.30;99.90;;;;;;4413670;32;20503;-74
2021/03/06 10:56:34;;;;;;;2.72;0.70;;;4.20;99.90;;;;;;4414558;32;20507;-75
2021/03/06 10:58:59;;;;;;;1.87;0.60;;;4.10;99.90;;;;;;4413265;32;20074;-75
2021/03/06 11:01:25;;;;;;;9.93;1.02;;;4.20;99.90;;;;;;4415155;32;20078;-74
2021/03/06 11:03:51;;;;;;;0.40;0.40;;;4.20;99.90;;;;;;4414150;32;20392;-74
2021/03/06 11:06:19;;;;;;;0.30;0.30;;;4.30;99.90;;;;;;4414948;32;20523;-74
2021/03/06 11:08:59;;;;;;;0.30;0.30;;;4.30;99.90;;;;;;4419913;32;20070;-74
2021/03/06 11:11:25;;;;;;;0.50;0.50;;;4.30;99.90;;;;;;4428517;32;20119;-74
2021/03/06 11:13:50;;;;;;;0.40;0.40;;;4.50;99.90;;;;;;4428237;32;20054;-74
2021/03/06 11:16:16;;;;;;;0.50;0.50;;;4.50;99.90;;;;;;4428749;32;20526;-74
2021/03/06 11:18:43;;;;;;;0.50;0.50;;;4.40;99.90;;;;;;4429056;32;20166;-75
2021/03/06 11:21:11;;;;;;;0.30;0.30;;;4.50;99.90;;;;;;4428356;32;20081;-75
2021/03/06 11:23:38;;;;;;;0.50;0.50;;;4.40;99.90;;;;;;4428552;32;20061;-75
2021/03/06 11:26:04;;;;;;;1.95;0.75;;;4.30;99.90;;;;;;4428914;32;20115;-75
2021/03/06 11:28:29;;;;;;;11.80;1.40;;;4.30;99.90;;;;;;4429462;32;20094;-74
2021/03/06 11:30:55;;;;;;;0.50;0.50;;;4.30;99.90;;;;;;4428511;32;20122;-74
2021/03/06 11:33:21;;;;;;;0.50;0.50;;;4.30;99.90;;;;;;4428412;32;20501;-74
2021/03/06 11:35:49;;;;;;;0.50;0.50;;;4.40;99.90;;;;;;4429481;32;20112;-75
2021/03/06 11:38:16;;;;;;;0.73;0.73;;;4.50;99.90;;;;;;4428481;32;20074;-75
2021/03/06 11:40:46;;;;;;;1.25;0.50;;;4.20;99.90;;;;;;4428424;32;20447;-74
2021/03/06 11:43:12;;;;;;;1.65;1.20;;;4.10;99.90;;;;;;4428392;32;20070;-74
2021/03/06 11:45:38;;;;;;;0.57;0.57;;;4.10;99.90;;;;;;4428882;32;20078;-74
2021/03/06 11:48:05;;;;;;;2.78;0.95;;;4.20;99.90;;;;;;4428395;32;20074;-74
2021/03/06 11:50:34;;;;;;;0.30;0.30;;;4.10;99.90;;;;;;4428820;32;20065;-74
2021/03/06 11:52:59;;;;;;;9.80;1.37;;;4.10;99.90;;;;;;4428290;32;20155;-74
2021/03/06 11:55:25;;;;;;;0.50;0.50;;;4.30;99.90;;;;;;4429844;32;20400;-74
2021/03/06 11:57:51;;;;;;;0.40;0.40;;;4.30;99.90;;;;;;4428477;32;20069;-74
2021/03/06 12:00:19;;;;;;;0.60;0.60;;;4.40;99.90;;;;;;4427463;32;20073;-74
2021/03/06 12:02:45;;;;;;;0.30;0.30;;;4.30;99.90;;;;;;4427841;32;20070;-74
2021/03/06 12:05:12;;;;;;;0.40;0.40;;;4.30;99.90;;;;;;4428040;32;20069;-74
2021/03/06 12:07:39;;;;;;;0.40;0.40;;;4.20;99.90;;;;;;4428129;32;20112;-74
2021/03/06 12:10:06;;;;;;;0.43;0.43;;;4.10;99.90;;;;;;4414700;32;20730;-74
2021/03/06 12:12:32;;;;;;;1.05;0.98;;;4.20;99.90;;;;;;4412923;32;20065;-74
2021/03/06 12:14:58;;;;;;;0.40;0.40;;;4.20;99.90;;;;;;4412489;32;20090;-74
2021/03/06 12:17:23;;;;;;;0.40;0.40;;;4.20;99.90;;;;;;4412614;32;20102;-74
2021/03/06 12:19:49;;;;;;;12.80;0.85;;;4.40;99.90;;;;;;4413246;32;20073;-74
2021/03/06 12:22:15;;;;;;;0.65;0.65;;;4.50;99.90;;;;;;4412990;32;20066;-73
2021/03/06 12:24:40;;;;;;;0.55;0.55;;;4.70;99.90;;;;;;4413232;32;20225;-73
2021/03/06 12:27:06;;;;;;;0.60;0.60;;;4.50;99.90;;;;;;4415175;32;20082;-74
2021/03/06 12:29:31;;;;;;;0.40;0.40;;;4.30;99.90;;;;;;4414535;32;20074;-75
2021/03/06 12:31:57;;;;;;;0.30;0.30;;;4.30;99.90;;;;;;4415626;32;20070;-74
2021/03/06 12:34:23;;;;;;;0.40;0.40;;;4.30;99.90;;;;;;4414979;32;20128;-74
2021/03/06 12:36:48;;;;;;;0.30;0.30;;;4.20;99.90;;;;;;4416271;32;20054;-74
2021/03/06 12:39:14;;;;;;;0.75;0.75;;;4.10;99.90;;;;;;4415538;32;20139;-74
2021/03/06 12:41:40;;;;;;;2.05;1.33;;;4.10;99.90;;;;;;4415130;32;20069;-74
2021/03/06 12:44:06;;;;;;;0.50;0.50;;;4.10;99.90;;;;;;4414738;32;20468;-74
2021/03/06 12:46:32;;;;;;;0.30;0.30;;;4.00;99.90;;;;;;4416127;32;20125;-74
2021/03/06 12:48:58;;;;;;;1.85;0.70;;;4.10;99.90;;;;;;4416642;32;20134;-74
2021/03/06 12:51:24;;;;;;;0.40;0.40;;;4.30;99.90;;;;;;4415294;32;20058;-75
2021/03/06 12:53:49;;;;;;;0.55;0.55;;;4.30;99.90;;;;;;4415245;32;20074;-75
2021/03/06 12:56:15;;;;;;;0.68;0.68;;;4.40;99.90;;;;;;4416435;32;20066;-74
2021/03/06 12:58:40;;;;;;;0.75;0.75;;;4.30;99.90;;;;;;4415510;32;20121;-73
2021/03/06 13:01:06;;;;;;;0.30;0.30;;;4.40;99.90;;;;;;4414868;32;20066;-74